createdAt,value
2023-04-15T00:00:35.687Z,650.1539
2023-04-15T00:01:36.756Z,643.8461
2023-04-15T00:02:37.890Z,651.0769
2023-04-15T00:03:39.123Z,654.4615
2023-04-15T00:04:39.857Z,669.9231
2023-04-15T00:05:40.935Z,677.6923
2023-04-15T00:06:41.934Z,673.8461
2023-04-15T00:07:43.720Z,658.7692
2023-04-15T00:08:43.875Z,652.3077
2023-04-15T00:09:44.952Z,649.9231
2023-04-15T00:10:46.017Z,649.1539
2023-04-15T00:11:47.029Z,647.1539
2023-04-15T00:12:48.059Z,648.3846
2023-04-15T00:13:49.104Z,656.6154
2023-04-15T00:14:50.185Z,646.8461
2023-04-15T00:15:51.240Z,651.3077
2023-04-15T00:16:52.340Z,650.0000
2023-04-15T00:17:53.286Z,651.9231
2023-04-15T00:18:54.343Z,665.4615
2023-04-15T00:19:55.358Z,654.0769
2023-04-15T00:20:56.464Z,654.6154
2023-04-15T00:21:57.453Z,647.0000
2023-04-15T00:22:58.506Z,647.7692
2023-04-15T00:23:59.533Z,644.3077
2023-04-15T00:25:00.577Z,642.3077
2023-04-15T00:26:01.667Z,649.8461
2023-04-15T00:27:02.698Z,663.3846
2023-04-15T00:28:03.700Z,657.3077
2023-04-15T00:29:04.749Z,651.5385
2023-04-15T00:30:05.783Z,661.3846
2023-04-15T00:31:06.884Z,649.0000
2023-04-15T00:32:07.900Z,642.9231
2023-04-15T00:33:08.923Z,645.8461
2023-04-15T00:34:09.988Z,642.6154
2023-04-15T00:35:11.048Z,641.2308
2023-04-15T00:36:12.071Z,643.3077
2023-04-15T00:37:13.081Z,655.7692
2023-04-15T00:38:14.157Z,653.8461
2023-04-15T00:39:15.239Z,643.7692
2023-04-15T00:40:16.230Z,639.6154
2023-04-15T00:41:17.326Z,635.7692
2023-04-15T00:42:18.364Z,631.3077
2023-04-15T00:43:19.365Z,639.9231
2023-04-15T00:44:20.399Z,648.9231
2023-04-15T00:45:21.434Z,653.6154
2023-04-15T00:46:22.542Z,654.6923
2023-04-15T00:47:23.621Z,660.2308
2023-04-15T00:48:24.568Z,654.2308
2023-04-15T00:49:25.624Z,643.0769
2023-04-15T00:50:26.693Z,639.8461
2023-04-15T00:51:27.708Z,636.1539
2023-04-15T00:52:28.825Z,628.7692
2023-04-15T00:53:29.834Z,641.1539
2023-04-15T00:54:30.843Z,638.0000
2023-04-15T00:55:31.925Z,631.6154
2023-04-15T00:56:32.987Z,637.6154
2023-04-15T00:57:34.111Z,649.3077
2023-04-15T00:58:35.143Z,660.9231
2023-04-15T00:59:36.195Z,664.3846
2023-04-15T01:00:37.230Z,653.9231
2023-04-15T01:01:38.322Z,652.0000
2023-04-15T01:02:39.598Z,644.1539
2023-04-15T01:03:40.467Z,644.0000
2023-04-15T01:04:41.393Z,630.8461
2023-04-15T01:05:42.442Z,623.6923
2023-04-15T01:06:43.534Z,628.0769
2023-04-15T01:07:44.596Z,633.2308
2023-04-15T01:08:45.626Z,642.5385
2023-04-15T01:09:46.594Z,646.2308
2023-04-15T01:10:47.666Z,644.8461
2023-04-15T01:11:48.724Z,653.1539
2023-04-15T01:12:49.733Z,653.9231
2023-04-15T01:13:50.828Z,644.3846
2023-04-15T01:14:51.833Z,633.7692
2023-04-15T01:15:52.845Z,625.5385
2023-04-15T01:16:53.860Z,619.0000
2023-04-15T01:17:55.029Z,626.3846
2023-04-15T01:18:55.947Z,632.1539
2023-04-15T01:19:57.015Z,637.8461
2023-04-15T01:20:58.031Z,652.5385
2023-04-15T01:21:59.072Z,657.0000
2023-04-15T01:23:00.263Z,657.0769
2023-04-15T01:24:01.170Z,669.9231
2023-04-15T01:25:02.202Z,673.3077
2023-04-15T01:26:03.272Z,670.0000
2023-04-15T01:27:04.278Z,661.6923
2023-04-15T01:28:05.383Z,651.9231
2023-04-15T01:29:06.344Z,651.1539
2023-04-15T01:30:07.453Z,643.0000
2023-04-15T01:31:08.518Z,634.6154
2023-04-15T01:32:09.472Z,651.5385
2023-04-15T01:33:10.531Z,664.3077
2023-04-15T01:34:11.555Z,656.8461
2023-04-15T01:35:12.608Z,648.4615
2023-04-15T01:36:13.613Z,647.4615
2023-04-15T01:37:14.650Z,652.3846
2023-04-15T01:38:15.730Z,645.3846
2023-04-15T01:39:16.829Z,648.0769
2023-04-15T01:40:17.778Z,651.6154
2023-04-15T01:41:18.833Z,650.3846
2023-04-15T01:42:19.850Z,643.9231
2023-04-15T01:43:20.926Z,646.4615
2023-04-15T01:44:21.932Z,649.5385
2023-04-15T01:45:22.951Z,651.0000
2023-04-15T01:46:24.021Z,641.0000
2023-04-15T01:47:25.072Z,645.7692
2023-04-15T01:48:26.145Z,635.8461
2023-04-15T01:49:27.127Z,649.5385
2023-04-15T01:50:28.090Z,654.3077
2023-04-15T01:51:29.144Z,646.0000
2023-04-15T01:52:30.171Z,631.2308
2023-04-15T01:53:31.226Z,628.1539
2023-04-15T01:54:32.262Z,639.4615
2023-04-15T01:55:33.318Z,639.1539
2023-04-15T01:56:34.351Z,636.8461
2023-04-15T01:57:35.372Z,636.0000
2023-04-15T01:58:36.472Z,633.0769
2023-04-15T01:59:37.473Z,636.3077
2023-04-15T02:00:38.539Z,630.9231
2023-04-15T02:01:39.573Z,637.5385
2023-04-15T02:02:40.746Z,648.8461
2023-04-15T02:03:41.781Z,647.3846
2023-04-15T02:04:42.685Z,641.5385
2023-04-15T02:05:43.702Z,637.4615
2023-04-15T02:06:44.731Z,633.1539
2023-04-15T02:07:45.769Z,628.5385
2023-04-15T02:08:46.869Z,635.3077
2023-04-15T02:09:47.876Z,641.3077
2023-04-15T02:10:48.915Z,640.6923
2023-04-15T02:11:49.977Z,645.6923
2023-04-15T02:12:51.014Z,646.0769
2023-04-15T02:13:52.096Z,645.6923
2023-04-15T02:14:53.102Z,644.0769
2023-04-15T02:15:54.140Z,654.8461
2023-04-15T02:16:55.242Z,643.3077
2023-04-15T02:17:56.228Z,642.8461
2023-04-15T02:18:57.283Z,649.8461
2023-04-15T02:19:58.280Z,644.7692
2023-04-15T02:20:59.393Z,654.4615
2023-04-15T02:22:00.372Z,669.6923
2023-04-15T02:23:01.424Z,678.6154
2023-04-15T02:24:02.500Z,681.1539
2023-04-15T02:25:03.531Z,678.7692
2023-04-15T02:26:04.539Z,668.6154
2023-04-15T02:27:05.556Z,673.6154
2023-04-15T02:28:06.622Z,676.7692
2023-04-15T02:29:07.661Z,664.1539
2023-04-15T02:30:08.683Z,657.3077
2023-04-15T02:31:09.775Z,653.8461
2023-04-15T02:32:10.914Z,651.1539
2023-04-15T02:33:11.838Z,651.3846
2023-04-15T02:34:12.898Z,639.6923
2023-04-15T02:35:13.996Z,634.6923
2023-04-15T02:36:14.961Z,632.7692
2023-04-15T02:37:16.017Z,635.9231
2023-04-15T02:38:17.089Z,628.1539
2023-04-15T02:39:18.085Z,629.0000
2023-04-15T02:40:19.239Z,637.6923
2023-04-15T02:41:20.321Z,632.3846
2023-04-15T02:42:21.314Z,623.3846
2023-04-15T02:43:22.356Z,620.0769
2023-04-15T02:44:23.378Z,616.0769
2023-04-15T02:45:24.505Z,607.4615
2023-04-15T02:46:25.588Z,605.6923
2023-04-15T02:47:26.593Z,596.7692
2023-04-15T02:48:27.557Z,583.0000
2023-04-15T02:49:28.752Z,574.4615
2023-04-15T02:50:30.071Z,576.2308
2023-04-15T02:51:30.870Z,578.8461
2023-04-15T02:52:31.754Z,578.1539
2023-04-15T02:53:32.831Z,585.9231
2023-04-15T02:54:33.840Z,588.6154
2023-04-15T02:55:34.916Z,595.7692
2023-04-15T02:56:35.912Z,599.6923
2023-04-15T02:57:36.989Z,595.3846
2023-04-15T02:58:37.995Z,595.1539
2023-04-15T02:59:39.037Z,593.1539
2023-04-15T03:00:40.151Z,586.8461
2023-04-15T03:01:41.088Z,589.3846
2023-04-15T03:02:42.461Z,597.6923
2023-04-15T03:03:43.380Z,601.6154
2023-04-15T03:04:44.350Z,594.8461
2023-04-15T03:05:45.410Z,597.9231
2023-04-15T03:06:46.369Z,614.6923
2023-04-15T03:07:47.424Z,609.7692
2023-04-15T03:08:48.549Z,616.0769
2023-04-15T03:09:49.515Z,624.2308
2023-04-15T03:10:50.572Z,619.5385
2023-04-15T03:11:51.573Z,612.6154
2023-04-15T03:12:52.619Z,611.6923
2023-04-15T03:13:53.689Z,622.6154
2023-04-15T03:14:54.718Z,618.2308
2023-04-15T03:15:55.887Z,611.6923
2023-04-15T03:16:56.830Z,608.4615
2023-04-15T03:17:57.930Z,605.4615
2023-04-15T03:18:59.020Z,620.9231
2023-04-15T03:19:59.964Z,616.1539
2023-04-15T03:21:01.027Z,606.0000
2023-04-15T03:22:02.016Z,603.4615
2023-04-15T03:23:03.058Z,617.8461
2023-04-15T03:24:04.200Z,609.7692
2023-04-15T03:25:05.145Z,620.2308
2023-04-15T03:26:06.238Z,611.8461
2023-04-15T03:27:07.294Z,612.9231
2023-04-15T03:28:08.276Z,596.3846
2023-04-15T03:29:09.318Z,597.9231
2023-04-15T03:30:10.334Z,598.3846
2023-04-15T03:31:11.458Z,588.3077
2023-04-15T03:32:12.508Z,579.2308
2023-04-15T03:33:13.400Z,590.0000
2023-04-15T03:34:14.441Z,606.4615
2023-04-15T03:35:15.491Z,599.3846
2023-04-15T03:36:16.569Z,596.0769
2023-04-15T03:37:17.574Z,586.1539
2023-04-15T03:38:18.597Z,586.9231
2023-04-15T03:39:19.651Z,593.7692
2023-04-15T03:40:20.685Z,598.6154
2023-04-15T03:41:21.756Z,615.7692
2023-04-15T03:42:22.766Z,611.0000
2023-04-15T03:43:23.778Z,609.7692
2023-04-15T03:44:24.854Z,612.6923
2023-04-15T03:45:25.855Z,610.5385
2023-04-15T03:46:26.962Z,617.0000
2023-04-15T03:47:27.971Z,640.3077
2023-04-15T03:48:29.005Z,637.6923
2023-04-15T03:49:30.025Z,616.8461
2023-04-15T03:50:31.054Z,617.6154
2023-04-15T03:51:32.126Z,624.0769
2023-04-15T03:52:33.151Z,605.4615
2023-04-15T03:53:34.187Z,617.4615
2023-04-15T03:54:35.238Z,625.3077
2023-04-15T03:55:36.297Z,631.6923
2023-04-15T03:56:37.379Z,637.9231
2023-04-15T03:57:38.390Z,631.2308
2023-04-15T03:58:39.433Z,625.1539
2023-04-15T03:59:40.476Z,632.5385
2023-04-15T04:00:41.575Z,639.5385
2023-04-15T04:01:42.688Z,626.8461
2023-04-15T04:02:43.726Z,616.7692
2023-04-15T04:03:44.813Z,615.0000
2023-04-15T04:04:45.714Z,623.0769
2023-04-15T04:05:46.754Z,614.7692
2023-04-15T04:06:47.828Z,607.9231
2023-04-15T04:07:48.821Z,609.6923
2023-04-15T04:08:49.873Z,607.6923
2023-04-15T04:09:50.934Z,593.0000
2023-04-15T04:10:51.953Z,596.7692
2023-04-15T04:11:53.033Z,598.0000
2023-04-15T04:12:54.039Z,593.3846
2023-04-15T04:13:55.133Z,604.6154
2023-04-15T04:14:56.170Z,602.5385
2023-04-15T04:15:57.334Z,598.1539
2023-04-15T04:16:58.335Z,596.6923
2023-04-15T04:17:59.326Z,603.3846
2023-04-15T04:19:00.612Z,613.3077
2023-04-15T04:20:01.381Z,604.1539
2023-04-15T04:21:02.390Z,588.6923
2023-04-15T04:22:03.516Z,588.0769
2023-04-15T04:23:04.467Z,587.4615
2023-04-15T04:24:05.672Z,579.8461
2023-04-15T04:25:06.705Z,571.6154
2023-04-15T04:26:07.772Z,584.6923
2023-04-15T04:27:08.829Z,595.4615
2023-04-15T04:28:09.837Z,603.6923
2023-04-15T04:29:10.869Z,580.7692
2023-04-15T04:30:11.933Z,574.6154
2023-04-15T04:31:13.054Z,591.1539
2023-04-15T04:32:14.123Z,597.7692
2023-04-15T04:33:15.075Z,601.8461
2023-04-15T04:34:16.074Z,590.8461
2023-04-15T04:35:17.153Z,573.2308
2023-04-15T04:36:18.375Z,580.3077
2023-04-15T04:37:19.301Z,583.5385
2023-04-15T04:38:20.281Z,583.3077
2023-04-15T04:39:21.389Z,568.5385
2023-04-15T04:40:22.371Z,567.3846
2023-04-15T04:41:23.374Z,554.6923
2023-04-15T04:42:24.545Z,572.3077
2023-04-15T04:43:25.487Z,574.6923
2023-04-15T04:44:26.649Z,570.3846
2023-04-15T04:45:27.557Z,548.6154
2023-04-15T04:46:28.634Z,537.6154
2023-04-15T04:47:29.782Z,540.8461
2023-04-15T04:48:30.705Z,549.3077
2023-04-15T04:49:31.722Z,549.5385
2023-04-15T04:50:32.771Z,557.6923
2023-04-15T04:51:33.828Z,570.8461
2023-04-15T04:52:34.975Z,568.9231
2023-04-15T04:53:35.931Z,550.6154
2023-04-15T04:54:36.972Z,546.2308
2023-04-15T04:55:38.028Z,553.0769
2023-04-15T04:56:39.070Z,569.6154
2023-04-15T04:57:40.168Z,567.2308
2023-04-15T04:58:41.108Z,563.9231
2023-04-15T04:59:42.209Z,574.3077
2023-04-15T05:00:43.199Z,574.0769
2023-04-15T05:01:44.474Z,555.6923
2023-04-15T05:02:45.515Z,570.4615
2023-04-15T05:03:46.422Z,567.0769
2023-04-15T05:04:47.365Z,566.3846
2023-04-15T05:05:48.508Z,572.4615
2023-04-15T05:06:49.533Z,576.0769
2023-04-15T05:07:50.547Z,583.7692
2023-04-15T05:08:51.537Z,561.6923
2023-04-15T05:09:52.663Z,537.7692
2023-04-15T05:10:53.616Z,550.8461
2023-04-15T05:11:54.723Z,550.6923
2023-04-15T05:12:55.805Z,544.8461
2023-04-15T05:13:56.794Z,548.4615
2023-04-15T05:14:57.829Z,549.7692
2023-04-15T05:15:58.924Z,556.9231
2023-04-15T05:17:00.454Z,579.0000
2023-04-15T05:18:00.934Z,589.0000
2023-04-15T05:19:02.179Z,604.1539
2023-04-15T05:20:02.967Z,612.0769
2023-04-15T05:21:04.035Z,616.8461
2023-04-15T05:22:05.059Z,618.0000
2023-04-15T05:23:06.159Z,615.5385
2023-04-15T05:24:07.137Z,594.3846
2023-04-15T05:25:08.190Z,582.9231
2023-04-15T05:26:09.240Z,589.4615
2023-04-15T05:27:10.261Z,599.0000
2023-04-15T05:28:11.372Z,595.4615
2023-04-15T05:29:12.349Z,602.1539
2023-04-15T05:30:13.842Z,589.3077
2023-04-15T05:31:14.513Z,573.0000
2023-04-15T05:32:15.491Z,570.0769
2023-04-15T05:33:16.603Z,574.1539
2023-04-15T05:34:17.562Z,573.8461
2023-04-15T05:35:18.640Z,581.7692
2023-04-15T05:36:19.659Z,568.1539
2023-04-15T05:37:20.700Z,579.0769
2023-04-15T05:38:21.774Z,577.3077
2023-04-15T05:39:22.775Z,567.8461
2023-04-15T05:40:23.840Z,587.0000
2023-04-15T05:41:24.878Z,598.8461
2023-04-15T05:42:25.916Z,598.6154
2023-04-15T05:43:26.993Z,596.1539
2023-04-15T05:44:28.054Z,598.2308
2023-04-15T05:45:29.059Z,589.3846
2023-04-15T05:46:30.144Z,589.6923
2023-04-15T05:47:31.147Z,587.6154
2023-04-15T05:48:32.192Z,584.8461
2023-04-15T05:49:33.185Z,584.6923
2023-04-15T05:50:34.260Z,587.9231
2023-04-15T05:51:35.297Z,605.0000
2023-04-15T05:52:36.323Z,598.0000
2023-04-15T05:53:37.452Z,583.2308
2023-04-15T05:54:38.971Z,595.0000
2023-04-15T05:55:39.478Z,610.3077
2023-04-15T05:56:40.492Z,600.2308
2023-04-15T05:57:41.574Z,604.3846
2023-04-15T05:58:42.617Z,604.3077
2023-04-15T05:59:43.614Z,613.3846
2023-04-15T06:00:44.678Z,617.0769
2023-04-15T06:01:45.710Z,614.7692
2023-04-15T06:02:46.961Z,601.9231
2023-04-15T06:03:47.938Z,592.4615
2023-04-15T06:04:48.846Z,585.4615
2023-04-15T06:05:49.894Z,586.1539
2023-04-15T06:06:50.918Z,606.3846
2023-04-15T06:07:52.017Z,611.3077
2023-04-15T06:08:53.112Z,618.1539
2023-04-15T06:09:54.129Z,611.1539
2023-04-15T06:10:55.198Z,591.7692
2023-04-15T06:11:56.220Z,600.3077
2023-04-15T06:12:57.192Z,617.3846
2023-04-15T06:13:58.352Z,636.6154
2023-04-15T06:15:00.235Z,653.6923
2023-04-15T06:16:00.429Z,671.7692
2023-04-15T06:17:01.436Z,675.3846
2023-04-15T06:18:02.540Z,676.4615
2023-04-15T06:19:03.510Z,673.3077
2023-04-15T06:20:04.468Z,678.9231
2023-04-15T06:21:05.509Z,675.1539
2023-04-15T06:22:06.560Z,671.6923
2023-04-15T06:23:07.554Z,671.2308
2023-04-15T06:24:08.704Z,639.3077
2023-04-15T06:25:09.626Z,620.7692
2023-04-15T06:26:10.747Z,609.3077
2023-04-15T06:27:11.723Z,605.8461
2023-04-15T06:28:12.752Z,608.2308
2023-04-15T06:29:13.850Z,593.0000
2023-04-15T06:30:14.827Z,592.2308
2023-04-15T06:31:15.863Z,595.3077
2023-04-15T06:32:16.949Z,608.2308
2023-04-15T06:33:17.989Z,600.0769
2023-04-15T06:34:19.014Z,579.3077
2023-04-15T06:35:20.054Z,594.4615
2023-04-15T06:36:21.076Z,595.3846
2023-04-15T06:37:22.131Z,594.2308
2023-04-15T06:38:23.151Z,611.5385
2023-04-15T06:39:24.267Z,629.5385
2023-04-15T06:40:25.303Z,618.7692
2023-04-15T06:41:26.269Z,591.9231
2023-04-15T06:42:27.307Z,593.9231
2023-04-15T06:43:28.333Z,610.9231
2023-04-15T06:44:29.403Z,624.6923
2023-04-15T06:45:30.511Z,630.7692
2023-04-15T06:46:31.471Z,617.6154
2023-04-15T06:47:32.516Z,638.1539
2023-04-15T06:48:33.510Z,636.2308
2023-04-15T06:49:34.628Z,617.9231
2023-04-15T06:50:35.662Z,617.6923
2023-04-15T06:51:36.664Z,642.1539
2023-04-15T06:52:37.706Z,655.6154
2023-04-15T06:53:38.715Z,668.3077
2023-04-15T06:54:39.818Z,662.1539
2023-04-15T06:55:40.830Z,641.6154
2023-04-15T06:56:41.813Z,633.3077
2023-04-15T06:57:42.875Z,626.1539
2023-04-15T06:58:43.947Z,637.7692
2023-04-15T06:59:44.902Z,651.2308
2023-04-15T07:00:45.957Z,641.7692
2023-04-15T07:01:46.956Z,613.2308
2023-04-15T07:02:48.056Z,601.1539
2023-04-15T07:03:49.128Z,628.7692
2023-04-15T07:04:50.149Z,647.3077
2023-04-15T07:05:51.135Z,648.6154
2023-04-15T07:06:52.223Z,658.9231
2023-04-15T07:07:53.253Z,656.8461
2023-04-15T07:08:54.288Z,662.9231
2023-04-15T07:09:55.343Z,659.4615
2023-04-15T07:10:56.359Z,656.7692
2023-04-15T07:11:57.397Z,656.0000
2023-04-15T07:12:58.401Z,647.8461
2023-04-15T07:13:59.475Z,661.7692
2023-04-15T07:15:00.516Z,636.5385
2023-04-15T07:16:01.650Z,630.7692
2023-04-15T07:17:02.608Z,652.5385
2023-04-15T07:18:03.621Z,677.1539
2023-04-15T07:19:04.817Z,667.3077
2023-04-15T07:20:05.684Z,671.5385
2023-04-15T07:21:06.710Z,693.3077
2023-04-15T07:22:07.777Z,694.6923
2023-04-15T07:23:08.982Z,689.7692
2023-04-15T07:24:09.799Z,701.0000
2023-04-15T07:25:11.183Z,709.6154
2023-04-15T07:26:11.933Z,707.9231
2023-04-15T07:27:12.944Z,718.6923
2023-04-15T07:28:13.973Z,702.4615
2023-04-15T07:29:15.020Z,687.2308
2023-04-15T07:30:16.062Z,688.3846
2023-04-15T07:31:17.184Z,693.6154
2023-04-15T07:32:18.128Z,700.0769
2023-04-15T07:33:19.171Z,710.9231
2023-04-15T07:34:20.399Z,721.9231
2023-04-15T07:35:21.233Z,702.6154
2023-04-15T07:36:22.323Z,696.2308
2023-04-15T07:37:23.332Z,703.0000
2023-04-15T07:38:24.375Z,703.9231
2023-04-15T07:39:25.411Z,706.8461
2023-04-15T07:40:26.493Z,680.3077
2023-04-15T07:41:27.572Z,690.9231
2023-04-15T07:42:28.537Z,692.9231
2023-04-15T07:43:29.595Z,710.2308
2023-04-15T07:44:30.619Z,707.5385
2023-04-15T07:45:31.680Z,691.3077
2023-04-15T07:46:32.774Z,693.1539
2023-04-15T07:47:33.787Z,696.2308
2023-04-15T07:48:35.610Z,709.1539
2023-04-15T07:49:35.916Z,705.1539
2023-04-15T07:50:36.991Z,663.3846
2023-04-15T07:51:38.069Z,663.0769
2023-04-15T07:52:39.057Z,682.4615
2023-04-15T07:53:40.118Z,684.7692
2023-04-15T07:54:41.138Z,685.0769
2023-04-15T07:55:42.184Z,690.1539
2023-04-15T07:56:43.280Z,703.0000
2023-04-15T07:57:44.214Z,679.8461
2023-04-15T07:58:45.260Z,687.7692
2023-04-15T07:59:46.299Z,690.8461
2023-04-15T08:00:47.392Z,686.8461
2023-04-15T08:01:48.477Z,668.2308
2023-04-15T08:02:49.553Z,655.2308
2023-04-15T08:03:50.671Z,644.0000
2023-04-15T08:04:51.704Z,657.3846
2023-04-15T08:05:52.619Z,653.0769
2023-04-15T08:06:53.636Z,663.8461
2023-04-15T08:07:54.641Z,657.0000
2023-04-15T08:08:55.747Z,660.3077
2023-04-15T08:09:56.680Z,676.0769
2023-04-15T08:10:57.766Z,684.0000
2023-04-15T08:11:58.837Z,687.0769
2023-04-15T08:12:59.899Z,694.0000
2023-04-15T08:14:00.835Z,695.0000
2023-04-15T08:15:01.924Z,663.3846
2023-04-15T08:16:03.005Z,691.9231
2023-04-15T08:17:04.038Z,671.3077
2023-04-15T08:18:05.020Z,664.0769
2023-04-15T08:19:06.046Z,662.7692
2023-04-15T08:20:07.082Z,675.4615
2023-04-15T08:21:08.159Z,654.0000
2023-04-15T08:22:15.371Z,660.6923
2023-04-15T08:23:10.166Z,654.6154
2023-04-15T08:24:11.261Z,660.4615
2023-04-15T08:25:12.246Z,654.3077
2023-04-15T08:26:13.388Z,662.0000
2023-04-15T08:27:14.433Z,668.0769
2023-04-15T08:28:15.410Z,665.9231
2023-04-15T08:29:16.437Z,677.9231
2023-04-15T08:30:17.479Z,703.3077
2023-04-15T08:31:18.557Z,714.6923
2023-04-15T08:32:19.636Z,705.4615
2023-04-15T08:33:20.593Z,711.0000
2023-04-15T08:34:21.626Z,728.5385
2023-04-15T08:35:22.806Z,712.8461
2023-04-15T08:36:23.736Z,676.3846
2023-04-15T08:37:24.668Z,668.7692
2023-04-15T08:38:25.710Z,693.4615
2023-04-15T08:39:26.732Z,686.3846
2023-04-15T08:40:27.795Z,683.8461
2023-04-15T08:41:28.814Z,687.7692
2023-04-15T08:42:29.915Z,698.0769
2023-04-15T08:43:30.892Z,700.1539
2023-04-15T08:44:31.972Z,683.3846
2023-04-15T08:45:32.998Z,685.6923
2023-04-15T08:46:34.032Z,676.3846
2023-04-15T08:47:35.073Z,706.7692
2023-04-15T08:48:36.057Z,712.0769
2023-04-15T08:49:37.100Z,708.0769
2023-04-15T08:50:38.142Z,718.6923
2023-04-15T08:51:39.187Z,732.3846
2023-04-15T08:52:40.261Z,718.4615
2023-04-15T08:53:41.266Z,721.0769
2023-04-15T08:54:42.308Z,691.1539
2023-04-15T08:55:43.309Z,694.6923
2023-04-15T08:56:44.414Z,701.1539
2023-04-15T08:57:45.450Z,710.8461
2023-04-15T08:58:46.465Z,712.5385
2023-04-15T08:59:47.528Z,708.2308
2023-04-15T09:00:48.650Z,674.6154
2023-04-15T09:01:49.628Z,648.3846
2023-04-15T09:02:50.730Z,622.7692
2023-04-15T09:03:51.777Z,667.3077
2023-04-15T09:04:52.921Z,666.4615
2023-04-15T09:05:53.762Z,706.9231
2023-04-15T09:06:54.782Z,700.6923
2023-04-15T09:07:55.935Z,692.0769
2023-04-15T09:08:56.861Z,689.9231
2023-04-15T09:09:57.923Z,703.9231
2023-04-15T09:10:58.990Z,712.2308
2023-04-15T09:11:59.998Z,693.0000
2023-04-15T09:13:01.089Z,685.2308
2023-04-15T09:14:02.080Z,713.4615
2023-04-15T09:15:03.141Z,739.3846
2023-04-15T09:16:04.232Z,763.7692
2023-04-15T09:17:05.295Z,742.1539
2023-04-15T09:18:06.264Z,740.8461
2023-04-15T09:19:07.265Z,752.2308
2023-04-15T09:20:08.300Z,746.1539
2023-04-15T09:21:09.638Z,765.7692
2023-04-15T09:22:10.357Z,769.5385
2023-04-15T09:23:11.484Z,741.9231
2023-04-15T09:24:12.433Z,744.3846
2023-04-15T09:25:13.514Z,704.0000
2023-04-15T09:26:14.510Z,708.9231
2023-04-15T09:27:15.544Z,721.8461
2023-04-15T09:28:16.619Z,710.6154
2023-04-15T09:29:17.622Z,726.2308
2023-04-15T09:30:18.685Z,750.0000
2023-04-15T09:31:19.747Z,744.3077
2023-04-15T09:32:20.712Z,701.7692
2023-04-15T09:33:21.906Z,670.8461
2023-04-15T09:34:22.956Z,705.0000
2023-04-15T09:35:23.929Z,699.6923
2023-04-15T09:36:24.986Z,674.5385
2023-04-15T09:37:32.395Z,675.1539
2023-04-15T09:38:27.117Z,669.0000
2023-04-15T09:39:28.113Z,684.7692
2023-04-15T09:40:29.152Z,690.9231
2023-04-15T09:41:30.199Z,694.4615
2023-04-15T09:42:31.238Z,641.2308
2023-04-15T09:43:32.292Z,608.7692
2023-04-15T09:44:33.314Z,618.7692
2023-04-15T09:45:34.337Z,616.9231
2023-04-15T09:46:35.433Z,621.4615
2023-04-15T09:47:36.492Z,596.2308
2023-04-15T09:48:37.602Z,617.1539
2023-04-15T09:49:38.578Z,659.1539
2023-04-15T09:50:39.562Z,677.6154
2023-04-15T09:51:41.340Z,677.0769
2023-04-15T09:52:41.634Z,693.1539
2023-04-15T09:53:42.710Z,712.0769
2023-04-15T09:54:43.695Z,713.8461
2023-04-15T09:55:44.745Z,727.5385
2023-04-15T09:56:45.806Z,718.9231
2023-04-15T09:57:46.828Z,689.4615
2023-04-15T09:58:47.912Z,675.3846
2023-04-15T09:59:48.873Z,696.3077
2023-04-15T10:00:49.973Z,702.4615
2023-04-15T10:01:51.075Z,702.3077
2023-04-15T10:02:52.056Z,675.7692
2023-04-15T10:03:53.115Z,689.6154
2023-04-15T10:04:54.110Z,684.6923
2023-04-15T10:05:55.163Z,676.6154
2023-04-15T10:06:56.158Z,702.0000
2023-04-15T10:07:57.247Z,665.0769
2023-04-15T10:08:58.253Z,684.2308
2023-04-15T10:09:59.271Z,706.0769
2023-04-15T10:11:00.277Z,713.7692
2023-04-15T10:12:01.324Z,726.8461
2023-04-15T10:13:02.356Z,715.9231
2023-04-15T10:14:03.745Z,693.3077
2023-04-15T10:15:04.423Z,662.5385
2023-04-15T10:16:05.483Z,689.1539
2023-04-15T10:17:06.478Z,692.3077
2023-04-15T10:18:07.766Z,708.1539
2023-04-15T10:19:08.523Z,722.6923
2023-04-15T10:20:09.516Z,744.6154
2023-04-15T10:21:10.543Z,750.0000
2023-04-15T10:22:11.616Z,717.2308
2023-04-15T10:23:13.462Z,719.6923
2023-04-15T10:24:13.696Z,714.6923
2023-04-15T10:25:14.702Z,724.0000
2023-04-15T10:26:15.734Z,725.5385
2023-04-15T10:27:16.788Z,743.7692
2023-04-15T10:28:17.810Z,741.6154
2023-04-15T10:29:18.882Z,719.3846
2023-04-15T10:30:19.899Z,725.0769
2023-04-15T10:31:20.971Z,698.9231
2023-04-15T10:32:21.991Z,721.7692
2023-04-15T10:33:23.006Z,720.3077
2023-04-15T10:34:24.061Z,720.4615
2023-04-15T10:35:25.095Z,717.3846
2023-04-15T10:36:26.108Z,709.5385
2023-04-15T10:37:27.188Z,727.3846
2023-04-15T10:38:28.206Z,743.7692
2023-04-15T10:39:29.279Z,768.2308
2023-04-15T10:40:30.302Z,770.5385
2023-04-15T10:41:31.387Z,753.0769
2023-04-15T10:42:32.385Z,757.2308
2023-04-15T10:43:33.379Z,758.7692
2023-04-15T10:44:34.471Z,755.4615
2023-04-15T10:45:35.505Z,745.3077
2023-04-15T10:46:36.564Z,742.3846
2023-04-15T10:47:37.597Z,760.7692
2023-04-15T10:48:38.610Z,777.8461
2023-04-15T10:49:39.626Z,798.6923
2023-04-15T10:50:40.732Z,785.5385
2023-04-15T10:51:41.756Z,770.3077
2023-04-15T10:52:42.738Z,766.0769
2023-04-15T10:53:43.801Z,753.9231
2023-04-15T10:54:44.806Z,779.6154
2023-04-15T10:55:45.867Z,795.2308
2023-04-15T10:56:46.899Z,799.3846
2023-04-15T10:57:47.934Z,779.1539
2023-04-15T10:58:48.998Z,765.9231
2023-04-15T10:59:50.029Z,724.6154
2023-04-15T11:00:51.068Z,733.5385
2023-04-15T11:01:52.194Z,747.9231
2023-04-15T11:02:53.161Z,710.6923
2023-04-15T11:03:54.325Z,744.6923
2023-04-15T11:04:55.560Z,761.6923
2023-04-15T11:05:56.316Z,747.8461
2023-04-15T11:06:57.303Z,756.3846
2023-04-15T11:07:58.364Z,763.7692
2023-04-15T11:08:59.463Z,769.3077
2023-04-15T11:10:00.434Z,771.4615
2023-04-15T11:11:01.512Z,759.3846
2023-04-15T11:12:02.503Z,731.9231
2023-04-15T11:13:03.552Z,694.9231
2023-04-15T11:14:04.733Z,727.6923
2023-04-15T11:15:05.605Z,763.5385
2023-04-15T11:16:06.748Z,777.3846
2023-04-15T11:17:07.760Z,775.0000
2023-04-15T11:18:08.907Z,750.6923
2023-04-15T11:19:09.883Z,735.4615
2023-04-15T11:20:10.913Z,736.0769
2023-04-15T11:21:12.035Z,716.3077
2023-04-15T11:22:12.949Z,733.3846
2023-04-15T11:23:15.015Z,750.3846
2023-04-15T11:24:15.104Z,753.9231
2023-04-15T11:25:16.075Z,755.7692
2023-04-15T11:26:17.187Z,753.8461
2023-04-15T11:27:18.183Z,758.8461
2023-04-15T11:28:19.181Z,765.5385
2023-04-15T11:29:20.239Z,769.8461
2023-04-15T11:30:21.302Z,768.1539
2023-04-15T11:31:22.461Z,770.6154
2023-04-15T11:32:23.415Z,757.3077
2023-04-15T11:33:24.447Z,765.5385
2023-04-15T11:34:25.449Z,755.0000
2023-04-15T11:35:26.533Z,784.2308
2023-04-15T11:36:27.614Z,786.4615
2023-04-15T11:37:28.592Z,749.2308
2023-04-15T11:38:29.640Z,752.5385
2023-04-15T11:39:30.686Z,770.6923
2023-04-15T11:40:31.761Z,769.9231
2023-04-15T11:41:32.830Z,756.9231
2023-04-15T11:42:48.571Z,745.9231
2023-04-15T11:43:34.853Z,760.3846
2023-04-15T11:44:35.887Z,753.6923
2023-04-15T11:45:37.039Z,736.6923
2023-04-15T11:46:37.882Z,749.6923
2023-04-15T11:47:38.926Z,772.2308
2023-04-15T11:48:39.937Z,762.8461
2023-04-15T11:49:40.982Z,753.3077
2023-04-15T11:50:42.022Z,752.0000
2023-04-15T11:51:43.103Z,766.0000
2023-04-15T11:52:44.102Z,771.5385
2023-04-15T11:53:45.123Z,777.0769
2023-04-15T11:54:46.193Z,760.6154
2023-04-15T11:55:47.220Z,725.6923
2023-04-15T11:56:48.282Z,716.8461